sensor_id;sensor_type;location;lat;lon;timestamp;temperature;humidity
22680;DHT22;11507;44.858;10.374;2022-08-21T00:00:32;19.40;99.90
22680;DHT22;11507;44.858;10.374;2022-08-21T00:03:05;19.40;99.90
22680;DHT22;11507;44.858;10.374;2022-08-21T00:05:35;19.40;99.90
22680;DHT22;11507;44.858;10.374;2022-08-21T00:08:02;19.50;99.90
22680;DHT22;11507;44.858;10.374;2022-08-21T00:10:28;19.50;99.90
22680;DHT22;11507;44.858;10.374;2022-08-21T00:12:54;19.50;99.90
22680;DHT22;11507;44.858;10.374;2022-08-21T00:15:25;19.50;99.90
22680;DHT22;11507;44.858;10.374;2022-08-21T00:17:54;19.50;99.90
22680;DHT22;11507;44.858;10.374;2022-08-21T00:20:20;19.50;99.90
22680;DHT22;11507;44.858;10.374;2022-08-21T00:22:47;19.50;99.90
22680;DHT22;11507;44.858;10.374;2022-08-21T00:25:15;19.40;99.90
22680;DHT22;11507;44.858;10.374;2022-08-21T00:27:41;19.40;99.90
22680;DHT22;11507;44.858;10.374;2022-08-21T00:30:10;19.30;99.90
22680;DHT22;11507;44.858;10.374;2022-08-21T00:32:37;19.40;99.90
22680;DHT22;11507;44.858;10.374;2022-08-21T00:35:06;19.30;99.90
22680;DHT22;11507;44.858;10.374;2022-08-21T00:37:33;19.30;99.90
22680;DHT22;11507;44.858;10.374;2022-08-21T00:39:59;19.20;99.90
22680;DHT22;11507;44.858;10.374;2022-08-21T00:42:25;19.30;99.90
22680;DHT22;11507;44.858;10.374;2022-08-21T00:44:51;19.20;99.90
22680;DHT22;11507;44.858;10.374;2022-08-21T00:47:18;19.30;99.90
22680;DHT22;11507;44.858;10.374;2022-08-21T00:49:44;19.30;99.90
22680;DHT22;11507;44.858;10.374;2022-08-21T00:52:14;19.40;99.90
22680;DHT22;11507;44.858;10.374;2022-08-21T00:54:41;19.30;99.90
22680;DHT22;11507;44.858;10.374;2022-08-21T00:57:19;19.30;99.90
22680;DHT22;11507;44.858;10.374;2022-08-21T00:59:47;19.30;99.90
22680;DHT22;11507;44.858;10.374;2022-08-21T01:02:15;19.30;99.90
22680;DHT22;11507;44.858;10.374;2022-08-21T01:04:41;19.30;99.90
22680;DHT22;11507;44.858;10.374;2022-08-21T01:07:07;19.20;99.90
22680;DHT22;11507;44.858;10.374;2022-08-21T01:09:33;19.10;99.90
22680;DHT22;11507;44.858;10.374;2022-08-21T01:11:59;19.10;99.90
22680;DHT22;11507;44.858;10.374;2022-08-21T01:14:25;19.00;99.90
22680;DHT22;11507;44.858;10.374;2022-08-21T01:16:52;19.00;99.90
22680;DHT22;11507;44.858;10.374;2022-08-21T01:19:21;19.10;99.90
22680;DHT22;11507;44.858;10.374;2022-08-21T01:21:47;19.10;99.90
22680;DHT22;11507;44.858;10.374;2022-08-21T01:24:13;19.20;99.90
22680;DHT22;11507;44.858;10.374;2022-08-21T01:26:41;19.20;99.90
22680;DHT22;11507;44.858;10.374;2022-08-21T01:29:39;19.30;99.90
22680;DHT22;11507;44.858;10.374;2022-08-21T01:32:09;19.20;99.90
22680;DHT22;11507;44.858;10.374;2022-08-21T01:34:38;19.10;99.90
22680;DHT22;11507;44.858;10.374;2022-08-21T01:37:05;19.10;99.90
22680;DHT22;11507;44.858;10.374;2022-08-21T01:39:31;19.10;99.90
22680;DHT22;11507;44.858;10.374;2022-08-21T01:41:57;19.00;99.90
22680;DHT22;11507;44.858;10.374;2022-08-21T01:44:23;19.00;99.90
22680;DHT22;11507;44.858;10.374;2022-08-21T01:46:50;19.10;99.90
22680;DHT22;11507;44.858;10.374;2022-08-21T01:49:17;19.20;99.90
22680;DHT22;11507;44.858;10.374;2022-08-21T01:51:43;19.20;99.90
22680;DHT22;11507;44.858;10.374;2022-08-21T01:54:09;19.30;99.90
22680;DHT22;11507;44.858;10.374;2022-08-21T01:56:40;19.30;99.90
22680;DHT22;11507;44.858;10.374;2022-08-21T01:59:07;19.20;99.90
22680;DHT22;11507;44.858;10.374;2022-08-21T02:01:33;19.20;99.90
22680;DHT22;11507;44.858;10.374;2022-08-21T02:03:59;19.00;99.90
22680;DHT22;11507;44.858;10.374;2022-08-21T02:06:25;19.00;99.90
22680;DHT22;11507;44.858;10.374;2022-08-21T02:08:51;18.90;99.90
22680;DHT22;11507;44.858;10.374;2022-08-21T02:11:18;18.80;99.90
22680;DHT22;11507;44.858;10.374;2022-08-21T02:13:43;18.70;99.90
22680;DHT22;11507;44.858;10.374;2022-08-21T02:16:09;18.70;99.90
22680;DHT22;11507;44.858;10.374;2022-08-21T02:18:36;18.70;99.90
22680;DHT22;11507;44.858;10.374;2022-08-21T02:21:04;18.70;99.90
22680;DHT22;11507;44.858;10.374;2022-08-21T02:23:30;18.80;99.90
22680;DHT22;11507;44.858;10.374;2022-08-21T02:26:01;19.00;99.90
22680;DHT22;11507;44.858;10.374;2022-08-21T02:28:28;19.00;99.90
22680;DHT22;11507;44.858;10.374;2022-08-21T02:30:55;19.10;99.90
22680;DHT22;11507;44.858;10.374;2022-08-21T02:33:21;19.20;99.90
22680;DHT22;11507;44.858;10.374;2022-08-21T02:35:48;19.20;99.90
22680;DHT22;11507;44.858;10.374;2022-08-21T02:38:18;19.20;99.90
22680;DHT22;11507;44.858;10.374;2022-08-21T02:40:48;19.30;99.90
22680;DHT22;11507;44.858;10.374;2022-08-21T02:43:15;19.30;99.90
22680;DHT22;11507;44.858;10.374;2022-08-21T02:45:42;19.30;99.90
22680;DHT22;11507;44.858;10.374;2022-08-21T02:48:11;19.40;99.90
22680;DHT22;11507;44.858;10.374;2022-08-21T02:50:53;19.40;99.90
22680;DHT22;11507;44.858;10.374;2022-08-21T02:53:21;19.30;99.90
22680;DHT22;11507;44.858;10.374;2022-08-21T02:55:49;19.10;99.90
22680;DHT22;11507;44.858;10.374;2022-08-21T02:58:19;19.00;99.90
22680;DHT22;11507;44.858;10.374;2022-08-21T03:00:46;18.90;99.90
22680;DHT22;11507;44.858;10.374;2022-08-21T03:03:13;18.90;99.90
22680;DHT22;11507;44.858;10.374;2022-08-21T03:05:40;18.80;99.90
22680;DHT22;11507;44.858;10.374;2022-08-21T03:08:09;18.70;99.90
22680;DHT22;11507;44.858;10.374;2022-08-21T03:10:37;18.70;99.90
22680;DHT22;11507;44.858;10.374;2022-08-21T03:13:05;18.70;99.90
22680;DHT22;11507;44.858;10.374;2022-08-21T03:15:32;18.80;99.90
22680;DHT22;11507;44.858;10.374;2022-08-21T03:17:58;18.80;99.90
22680;DHT22;11507;44.858;10.374;2022-08-21T03:20:27;18.70;99.90
22680;DHT22;11507;44.858;10.374;2022-08-21T03:22:54;18.60;99.90
22680;DHT22;11507;44.858;10.374;2022-08-21T03:25:22;18.50;99.90
22680;DHT22;11507;44.858;10.374;2022-08-21T03:27:48;18.50;99.90
22680;DHT22;11507;44.858;10.374;2022-08-21T03:30:15;18.50;99.90
22680;DHT22;11507;44.858;10.374;2022-08-21T03:32:41;18.40;99.90
22680;DHT22;11507;44.858;10.374;2022-08-21T03:35:09;18.30;99.90
22680;DHT22;11507;44.858;10.374;2022-08-21T03:37:36;18.20;99.90
22680;DHT22;11507;44.858;10.374;2022-08-21T03:40:04;18.10;99.90
22680;DHT22;11507;44.858;10.374;2022-08-21T03:42:30;18.10;99.90
22680;DHT22;11507;44.858;10.374;2022-08-21T03:44:56;18.00;99.90
22680;DHT22;11507;44.858;10.374;2022-08-21T03:47:22;18.00;99.90
22680;DHT22;11507;44.858;10.374;2022-08-21T03:49:48;17.90;99.90
22680;DHT22;11507;44.858;10.374;2022-08-21T03:52:14;18.00;99.90
22680;DHT22;11507;44.858;10.374;2022-08-21T03:54:43;18.00;99.90
22680;DHT22;11507;44.858;10.374;2022-08-21T03:57:10;18.10;99.90
22680;DHT22;11507;44.858;10.374;2022-08-21T03:59:37;18.00;99.90
22680;DHT22;11507;44.858;10.374;2022-08-21T04:02:05;18.00;99.90
22680;DHT22;11507;44.858;10.374;2022-08-21T04:04:32;17.90;99.90
22680;DHT22;11507;44.858;10.374;2022-08-21T04:06:59;17.80;99.90
22680;DHT22;11507;44.858;10.374;2022-08-21T04:09:25;17.80;99.90
22680;DHT22;11507;44.858;10.374;2022-08-21T04:11:51;17.80;99.90
22680;DHT22;11507;44.858;10.374;2022-08-21T04:14:18;17.90;99.90
22680;DHT22;11507;44.858;10.374;2022-08-21T04:16:44;18.10;99.90
22680;DHT22;11507;44.858;10.374;2022-08-21T04:19:11;18.10;99.90
22680;DHT22;11507;44.858;10.374;2022-08-21T04:21:39;18.20;99.90
22680;DHT22;11507;44.858;10.374;2022-08-21T04:24:07;18.20;99.90
22680;DHT22;11507;44.858;10.374;2022-08-21T04:26:34;18.30;99.90
22680;DHT22;11507;44.858;10.374;2022-08-21T04:29:00;18.50;99.90
22680;DHT22;11507;44.858;10.374;2022-08-21T04:31:26;18.50;99.90
22680;DHT22;11507;44.858;10.374;2022-08-21T04:33:54;18.40;99.90
22680;DHT22;11507;44.858;10.374;2022-08-21T04:36:20;18.50;99.90
22680;DHT22;11507;44.858;10.374;2022-08-21T04:38:47;18.30;99.90
22680;DHT22;11507;44.858;10.374;2022-08-21T04:41:13;18.20;99.90
22680;DHT22;11507;44.858;10.374;2022-08-21T04:43:39;18.10;99.90
22680;DHT22;11507;44.858;10.374;2022-08-21T04:46:06;18.00;99.90
22680;DHT22;11507;44.858;10.374;2022-08-21T04:48:32;18.00;99.90
22680;DHT22;11507;44.858;10.374;2022-08-21T04:53:55;17.90;99.90
22680;DHT22;11507;44.858;10.374;2022-08-21T04:56:26;17.80;99.90
22680;DHT22;11507;44.858;10.374;2022-08-21T04:58:56;17.80;99.90
22680;DHT22;11507;44.858;10.374;2022-08-21T05:01:24;17.90;99.90
22680;DHT22;11507;44.858;10.374;2022-08-21T05:03:55;18.00;99.90
22680;DHT22;11507;44.858;10.374;2022-08-21T05:06:22;18.00;99.90
22680;DHT22;11507;44.858;10.374;2022-08-21T05:08:49;18.00;99.90
22680;DHT22;11507;44.858;10.374;2022-08-21T05:11:16;18.10;99.90
22680;DHT22;11507;44.858;10.374;2022-08-21T05:13:42;18.10;99.90
22680;DHT22;11507;44.858;10.374;2022-08-21T05:16:09;18.10;99.90
22680;DHT22;11507;44.858;10.374;2022-08-21T05:18:35;18.20;99.90
22680;DHT22;11507;44.858;10.374;2022-08-21T05:21:00;18.40;99.90
22680;DHT22;11507;44.858;10.374;2022-08-21T05:23:26;18.60;99.90
22680;DHT22;11507;44.858;10.374;2022-08-21T05:25:53;18.80;99.90
22680;DHT22;11507;44.858;10.374;2022-08-21T05:28:19;18.90;99.90
22680;DHT22;11507;44.858;10.374;2022-08-21T05:30:45;19.10;99.90
22680;DHT22;11507;44.858;10.374;2022-08-21T05:33:11;19.20;99.90
22680;DHT22;11507;44.858;10.374;2022-08-21T05:35:39;19.30;99.90
22680;DHT22;11507;44.858;10.374;2022-08-21T05:38:05;19.40;99.90
22680;DHT22;11507;44.858;10.374;2022-08-21T05:40:32;19.50;99.90
22680;DHT22;11507;44.858;10.374;2022-08-21T05:42:59;19.70;99.90
22680;DHT22;11507;44.858;10.374;2022-08-21T05:45:29;19.80;99.90
22680;DHT22;11507;44.858;10.374;2022-08-21T05:47:55;19.90;99.90
22680;DHT22;11507;44.858;10.374;2022-08-21T05:50:21;20.00;99.90
22680;DHT22;11507;44.858;10.374;2022-08-21T05:52:47;20.10;99.90
22680;DHT22;11507;44.858;10.374;2022-08-21T05:55:13;20.20;99.90
22680;DHT22;11507;44.858;10.374;2022-08-21T05:57:39;20.40;99.90
22680;DHT22;11507;44.858;10.374;2022-08-21T06:00:08;20.60;99.90
22680;DHT22;11507;44.858;10.374;2022-08-21T06:02:41;20.70;99.90
22680;DHT22;11507;44.858;10.374;2022-08-21T06:05:07;20.90;99.90
22680;DHT22;11507;44.858;10.374;2022-08-21T06:07:34;21.10;99.90
22680;DHT22;11507;44.858;10.374;2022-08-21T06:10:00;21.30;99.90
22680;DHT22;11507;44.858;10.374;2022-08-21T06:12:26;21.40;99.90
22680;DHT22;11507;44.858;10.374;2022-08-21T06:14:52;21.60;99.90
22680;DHT22;11507;44.858;10.374;2022-08-21T06:17:18;21.70;99.90
22680;DHT22;11507;44.858;10.374;2022-08-21T06:19:51;21.80;99.90
22680;DHT22;11507;44.858;10.374;2022-08-21T06:22:17;22.00;99.90
22680;DHT22;11507;44.858;10.374;2022-08-21T06:24:44;22.00;99.90
22680;DHT22;11507;44.858;10.374;2022-08-21T06:27:09;22.20;99.90
22680;DHT22;11507;44.858;10.374;2022-08-21T06:29:36;22.30;99.90
22680;DHT22;11507;44.858;10.374;2022-08-21T06:32:02;22.40;99.90
22680;DHT22;11507;44.858;10.374;2022-08-21T06:34:28;22.60;99.90
22680;DHT22;11507;44.858;10.374;2022-08-21T06:36:54;22.60;99.90
22680;DHT22;11507;44.858;10.374;2022-08-21T06:39:20;22.70;99.90
22680;DHT22;11507;44.858;10.374;2022-08-21T06:41:46;22.70;99.90
22680;DHT22;11507;44.858;10.374;2022-08-21T06:44:12;22.80;99.90
22680;DHT22;11507;44.858;10.374;2022-08-21T06:46:40;22.90;99.90
22680;DHT22;11507;44.858;10.374;2022-08-21T06:49:08;23.00;99.90
22680;DHT22;11507;44.858;10.374;2022-08-21T06:51:34;23.10;99.90
22680;DHT22;11507;44.858;10.374;2022-08-21T06:54:00;23.20;99.90
22680;DHT22;11507;44.858;10.374;2022-08-21T06:56:26;23.20;99.90
22680;DHT22;11507;44.858;10.374;2022-08-21T06:58:52;23.30;99.90
22680;DHT22;11507;44.858;10.374;2022-08-21T07:01:20;23.40;99.90
22680;DHT22;11507;44.858;10.374;2022-08-21T07:03:49;23.50;99.90
22680;DHT22;11507;44.858;10.374;2022-08-21T07:06:15;23.60;99.90
22680;DHT22;11507;44.858;10.374;2022-08-21T07:08:42;23.70;99.90
22680;DHT22;11507;44.858;10.374;2022-08-21T07:11:17;23.90;99.90
22680;DHT22;11507;44.858;10.374;2022-08-21T07:13:44;24.00;99.90
22680;DHT22;11507;44.858;10.374;2022-08-21T07:16:10;24.10;99.90
22680;DHT22;11507;44.858;10.374;2022-08-21T07:18:36;24.20;99.90
22680;DHT22;11507;44.858;10.374;2022-08-21T07:21:04;24.20;99.90
22680;DHT22;11507;44.858;10.374;2022-08-21T07:23:38;24.20;99.90
22680;DHT22;11507;44.858;10.374;2022-08-21T07:26:05;24.30;99.90
22680;DHT22;11507;44.858;10.374;2022-08-21T07:28:32;24.40;99.90
22680;DHT22;11507;44.858;10.374;2022-08-21T07:30:59;24.50;99.90
22680;DHT22;11507;44.858;10.374;2022-08-21T07:33:28;24.60;99.90
22680;DHT22;11507;44.858;10.374;2022-08-21T07:35:54;24.60;99.90
22680;DHT22;11507;44.858;10.374;2022-08-21T07:38:20;24.80;99.90
22680;DHT22;11507;44.858;10.374;2022-08-21T07:40:47;24.90;99.90
22680;DHT22;11507;44.858;10.374;2022-08-21T07:43:14;25.00;99.90
22680;DHT22;11507;44.858;10.374;2022-08-21T07:45:42;25.20;99.90
22680;DHT22;11507;44.858;10.374;2022-08-21T07:48:08;25.30;99.90
22680;DHT22;11507;44.858;10.374;2022-08-21T07:50:34;25.30;99.90
22680;DHT22;11507;44.858;10.374;2022-08-21T07:53:00;25.50;99.90
22680;DHT22;11507;44.858;10.374;2022-08-21T07:55:27;25.50;99.90
22680;DHT22;11507;44.858;10.374;2022-08-21T07:57:52;25.70;99.90
22680;DHT22;11507;44.858;10.374;2022-08-21T08:00:21;26.00;99.90
22680;DHT22;11507;44.858;10.374;2022-08-21T08:02:50;26.30;99.90
22680;DHT22;11507;44.858;10.374;2022-08-21T08:05:20;26.50;99.90
22680;DHT22;11507;44.858;10.374;2022-08-21T08:07:47;26.40;99.90
22680;DHT22;11507;44.858;10.374;2022-08-21T08:10:14;26.30;99.90
22680;DHT22;11507;44.858;10.374;2022-08-21T08:12:42;26.40;99.90
22680;DHT22;11507;44.858;10.374;2022-08-21T08:15:12;26.50;99.90
22680;DHT22;11507;44.858;10.374;2022-08-21T08:17:38;26.60;99.90
22680;DHT22;11507;44.858;10.374;2022-08-21T08:20:08;26.80;99.90
22680;DHT22;11507;44.858;10.374;2022-08-21T08:22:36;27.00;99.90
22680;DHT22;11507;44.858;10.374;2022-08-21T08:25:03;27.10;99.90
22680;DHT22;11507;44.858;10.374;2022-08-21T08:27:30;27.20;99.90
22680;DHT22;11507;44.858;10.374;2022-08-21T08:29:55;27.30;99.90
22680;DHT22;11507;44.858;10.374;2022-08-21T08:32:21;27.40;99.90
22680;DHT22;11507;44.858;10.374;2022-08-21T08:34:48;27.50;99.90
22680;DHT22;11507;44.858;10.374;2022-08-21T08:37:14;27.70;99.90
22680;DHT22;11507;44.858;10.374;2022-08-21T08:39:40;27.50;99.90
22680;DHT22;11507;44.858;10.374;2022-08-21T08:42:14;27.70;99.90
22680;DHT22;11507;44.858;10.374;2022-08-21T08:44:44;28.00;99.90
22680;DHT22;11507;44.858;10.374;2022-08-21T08:47:13;28.30;99.90
22680;DHT22;11507;44.858;10.374;2022-08-21T08:49:52;28.60;99.90
22680;DHT22;11507;44.858;10.374;2022-08-21T08:52:20;28.80;99.90
22680;DHT22;11507;44.858;10.374;2022-08-21T08:54:52;29.00;99.90
22680;DHT22;11507;44.858;10.374;2022-08-21T08:57:23;29.30;99.90
22680;DHT22;11507;44.858;10.374;2022-08-21T08:59:52;29.40;99.90
22680;DHT22;11507;44.858;10.374;2022-08-21T09:02:19;29.60;99.90
22680;DHT22;11507;44.858;10.374;2022-08-21T09:04:47;29.80;99.70
22680;DHT22;11507;44.858;10.374;2022-08-21T09:07:25;29.90;99.90
22680;DHT22;11507;44.858;10.374;2022-08-21T09:15:50;30.20;99.90
22680;DHT22;11507;44.858;10.374;2022-08-21T09:18:20;30.50;97.40
22680;DHT22;11507;44.858;10.374;2022-08-21T09:23:57;30.90;95.40
22680;DHT22;11507;44.858;10.374;2022-08-21T09:27:16;31.00;99.10
22680;DHT22;11507;44.858;10.374;2022-08-21T09:29:19;31.20;99.90
22680;DHT22;11507;44.858;10.374;2022-08-21T09:31:46;31.70;98.80
22680;DHT22;11507;44.858;10.374;2022-08-21T09:34:29;31.90;96.00
22680;DHT22;11507;44.858;10.374;2022-08-21T09:36:56;32.10;95.20
22680;DHT22;11507;44.858;10.374;2022-08-21T09:39:38;32.40;96.00
22680;DHT22;11507;44.858;10.374;2022-08-21T09:42:06;32.70;96.40
22680;DHT22;11507;44.858;10.374;2022-08-21T09:44:38;32.90;90.40
22680;DHT22;11507;44.858;10.374;2022-08-21T09:47:09;32.70;92.30
22680;DHT22;11507;44.858;10.374;2022-08-21T09:49:37;32.80;92.00
22680;DHT22;11507;44.858;10.374;2022-08-21T09:52:15;33.10;93.00
22680;DHT22;11507;44.858;10.374;2022-08-21T09:54:44;33.40;93.60
22680;DHT22;11507;44.858;10.374;2022-08-21T09:57:16;33.80;93.40
22680;DHT22;11507;44.858;10.374;2022-08-21T10:00:20;33.80;86.30
22680;DHT22;11507;44.858;10.374;2022-08-21T10:02:49;33.80;88.30
22680;DHT22;11507;44.858;10.374;2022-08-21T10:05:19;34.00;91.20
22680;DHT22;11507;44.858;10.374;2022-08-21T10:07:48;34.40;91.70
22680;DHT22;11507;44.858;10.374;2022-08-21T10:10:25;34.80;91.80
22680;DHT22;11507;44.858;10.374;2022-08-21T10:13:21;35.30;90.40
22680;DHT22;11507;44.858;10.374;2022-08-21T10:29:56;36.20;78.50
22680;DHT22;11507;44.858;10.374;2022-08-21T10:32:56;36.10;80.90
22680;DHT22;11507;44.858;10.374;2022-08-21T10:36:21;36.50;80.20
22680;DHT22;11507;44.858;10.374;2022-08-21T10:41:37;37.20;75.60
22680;DHT22;11507;44.858;10.374;2022-08-21T10:47:05;36.90;76.80
22680;DHT22;11507;44.858;10.374;2022-08-21T10:55:35;37.80;68.40
22680;DHT22;11507;44.858;10.374;2022-08-21T10:58:09;38.00;72.20
22680;DHT22;11507;44.858;10.374;2022-08-21T11:03:13;38.30;69.30
22680;DHT22;11507;44.858;10.374;2022-08-21T11:05:53;38.00;68.30
22680;DHT22;11507;44.858;10.374;2022-08-21T11:14:21;37.30;67.70
22680;DHT22;11507;44.858;10.374;2022-08-21T11:16:58;37.40;69.80
22680;DHT22;11507;44.858;10.374;2022-08-21T11:19:30;37.50;67.50
22680;DHT22;11507;44.858;10.374;2022-08-21T11:27:36;38.70;70.80
22680;DHT22;11507;44.858;10.374;2022-08-21T11:30:00;38.70;65.10
22680;DHT22;11507;44.858;10.374;2022-08-21T11:43:38;38.40;60.50
22680;DHT22;11507;44.858;10.374;2022-08-21T11:51:37;39.10;66.10
22680;DHT22;11507;44.858;10.374;2022-08-21T11:54:26;39.90;65.20
22680;DHT22;11507;44.858;10.374;2022-08-21T11:57:02;40.60;58.10
22680;DHT22;11507;44.858;10.374;2022-08-21T11:59:47;40.40;55.50
22680;DHT22;11507;44.858;10.374;2022-08-21T12:02:16;40.20;59.90
22680;DHT22;11507;44.858;10.374;2022-08-21T12:04:53;40.60;61.30
22680;DHT22;11507;44.858;10.374;2022-08-21T12:07:34;41.30;58.70
22680;DHT22;11507;44.858;10.374;2022-08-21T12:10:02;41.80;57.50
22680;DHT22;11507;44.858;10.374;2022-08-21T12:12:36;42.30;56.80
22680;DHT22;11507;44.858;10.374;2022-08-21T12:15:23;42.80;56.00
22680;DHT22;11507;44.858;10.374;2022-08-21T12:18:05;43.40;53.90
22680;DHT22;11507;44.858;10.374;2022-08-21T12:23:18;43.90;53.60
22680;DHT22;11507;44.858;10.374;2022-08-21T12:28:33;44.40;51.10
22680;DHT22;11507;44.858;10.374;2022-08-21T12:30:59;44.60;49.20
22680;DHT22;11507;44.858;10.374;2022-08-21T12:33:32;44.60;46.10
22680;DHT22;11507;44.858;10.374;2022-08-21T12:36:15;44.30;48.10
22680;DHT22;11507;44.858;10.374;2022-08-21T12:41:21;44.40;50.70
22680;DHT22;11507;44.858;10.374;2022-08-21T12:44:01;44.80;48.60
22680;DHT22;11507;44.858;10.374;2022-08-21T12:46:57;45.10;49.00
22680;DHT22;11507;44.858;10.374;2022-08-21T12:49:31;45.50;47.10
22680;DHT22;11507;44.858;10.374;2022-08-21T12:52:29;45.70;45.80
22680;DHT22;11507;44.858;10.374;2022-08-21T12:54:56;45.80;47.10
22680;DHT22;11507;44.858;10.374;2022-08-21T12:57:27;45.90;43.80
22680;DHT22;11507;44.858;10.374;2022-08-21T13:00:00;45.50;41.90
22680;DHT22;11507;44.858;10.374;2022-08-21T13:02:31;44.90;41.30
22680;DHT22;11507;44.858;10.374;2022-08-21T13:05:02;44.30;43.50
22680;DHT22;11507;44.858;10.374;2022-08-21T13:07:34;44.30;47.20
22680;DHT22;11507;44.858;10.374;2022-08-21T13:10:12;44.50;45.90
22680;DHT22;11507;44.858;10.374;2022-08-21T13:12:41;44.70;45.30
22680;DHT22;11507;44.858;10.374;2022-08-21T13:15:08;44.90;45.90
22680;DHT22;11507;44.858;10.374;2022-08-21T13:17:38;45.30;45.20
22680;DHT22;11507;44.858;10.374;2022-08-21T13:20:10;45.50;43.30
22680;DHT22;11507;44.858;10.374;2022-08-21T13:22:41;45.90;42.10
22680;DHT22;11507;44.858;10.374;2022-08-21T13:25:13;45.50;42.40
22680;DHT22;11507;44.858;10.374;2022-08-21T13:27:39;45.50;43.60
22680;DHT22;11507;44.858;10.374;2022-08-21T13:30:20;45.50;44.60
22680;DHT22;11507;44.858;10.374;2022-08-21T13:32:54;45.70;43.70
22680;DHT22;11507;44.858;10.374;2022-08-21T13:35:46;45.90;41.80
22680;DHT22;11507;44.858;10.374;2022-08-21T13:38:11;46.10;42.60
22680;DHT22;11507;44.858;10.374;2022-08-21T13:40:54;46.30;41.70
22680;DHT22;11507;44.858;10.374;2022-08-21T13:43:27;46.70;42.40
22680;DHT22;11507;44.858;10.374;2022-08-21T13:45:55;46.80;42.20
22680;DHT22;11507;44.858;10.374;2022-08-21T13:48:24;46.80;43.50
22680;DHT22;11507;44.858;10.374;2022-08-21T13:50:52;46.80;42.10
22680;DHT22;11507;44.858;10.374;2022-08-21T13:54:13;47.10;41.00
22680;DHT22;11507;44.858;10.374;2022-08-21T13:56:08;47.40;39.90
22680;DHT22;11507;44.858;10.374;2022-08-21T13:58:43;47.50;39.50
22680;DHT22;11507;44.858;10.374;2022-08-21T14:01:38;47.40;36.70
22680;DHT22;11507;44.858;10.374;2022-08-21T14:04:07;47.10;41.10
22680;DHT22;11507;44.858;10.374;2022-08-21T14:06:38;47.10;39.70
22680;DHT22;11507;44.858;10.374;2022-08-21T14:09:12;46.60;38.40
22680;DHT22;11507;44.858;10.374;2022-08-21T14:11:41;46.60;38.80
22680;DHT22;11507;44.858;10.374;2022-08-21T14:16:46;46.80;40.60
22680;DHT22;11507;44.858;10.374;2022-08-21T14:19:27;46.80;39.20
22680;DHT22;11507;44.858;10.374;2022-08-21T14:21:54;46.80;37.60
22680;DHT22;11507;44.858;10.374;2022-08-21T14:27:03;46.70;40.10
22680;DHT22;11507;44.858;10.374;2022-08-21T14:29:37;46.60;39.40
22680;DHT22;11507;44.858;10.374;2022-08-21T14:32:13;46.70;40.30
22680;DHT22;11507;44.858;10.374;2022-08-21T14:34:39;46.80;38.60
22680;DHT22;11507;44.858;10.374;2022-08-21T14:37:05;47.00;39.60
22680;DHT22;11507;44.858;10.374;2022-08-21T14:39:31;47.00;37.70
22680;DHT22;11507;44.858;10.374;2022-08-21T14:41:59;47.20;38.10
22680;DHT22;11507;44.858;10.374;2022-08-21T14:44:26;47.30;37.80
22680;DHT22;11507;44.858;10.374;2022-08-21T14:46:52;47.30;34.70
22680;DHT22;11507;44.858;10.374;2022-08-21T14:49:18;46.50;36.00
22680;DHT22;11507;44.858;10.374;2022-08-21T14:51:44;45.90;37.20
22680;DHT22;11507;44.858;10.374;2022-08-21T14:54:10;45.90;38.20
22680;DHT22;11507;44.858;10.374;2022-08-21T14:56:36;45.80;37.70
22680;DHT22;11507;44.858;10.374;2022-08-21T14:59:06;45.50;36.90
22680;DHT22;11507;44.858;10.374;2022-08-21T15:01:44;44.80;38.10
22680;DHT22;11507;44.858;10.374;2022-08-21T15:04:10;44.30;38.90
22680;DHT22;11507;44.858;10.374;2022-08-21T15:06:36;44.50;39.10
22680;DHT22;11507;44.858;10.374;2022-08-21T15:09:02;44.90;39.80
22680;DHT22;11507;44.858;10.374;2022-08-21T15:11:32;45.20;37.10
22680;DHT22;11507;44.858;10.374;2022-08-21T15:14:01;45.30;38.40
22680;DHT22;11507;44.858;10.374;2022-08-21T15:16:29;45.60;39.00
22680;DHT22;11507;44.858;10.374;2022-08-21T15:18:56;45.80;38.80
22680;DHT22;11507;44.858;10.374;2022-08-21T15:21:22;45.90;38.80
22680;DHT22;11507;44.858;10.374;2022-08-21T15:23:49;46.20;38.50
22680;DHT22;11507;44.858;10.374;2022-08-21T15:26:15;46.20;39.00
22680;DHT22;11507;44.858;10.374;2022-08-21T15:28:41;46.20;39.10
22680;DHT22;11507;44.858;10.374;2022-08-21T15:31:07;46.40;38.50
22680;DHT22;11507;44.858;10.374;2022-08-21T15:33:33;46.40;38.80
22680;DHT22;11507;44.858;10.374;2022-08-21T15:35:59;46.50;37.40
22680;DHT22;11507;44.858;10.374;2022-08-21T15:38:25;46.40;35.90
22680;DHT22;11507;44.858;10.374;2022-08-21T15:40:52;46.20;37.20
22680;DHT22;11507;44.858;10.374;2022-08-21T15:43:32;45.80;35.80
22680;DHT22;11507;44.858;10.374;2022-08-21T15:46:01;45.50;36.70
22680;DHT22;11507;44.858;10.374;2022-08-21T15:48:27;44.90;36.50
22680;DHT22;11507;44.858;10.374;2022-08-21T15:50:53;44.30;37.90
22680;DHT22;11507;44.858;10.374;2022-08-21T15:53:20;43.70;37.10
22680;DHT22;11507;44.858;10.374;2022-08-21T15:55:46;43.40;37.80
22680;DHT22;11507;44.858;10.374;2022-08-21T15:58:15;42.90;37.70
22680;DHT22;11507;44.858;10.374;2022-08-21T16:00:42;42.50;39.10
22680;DHT22;11507;44.858;10.374;2022-08-21T16:03:11;42.20;39.60
22680;DHT22;11507;44.858;10.374;2022-08-21T16:05:40;41.70;40.80
22680;DHT22;11507;44.858;10.374;2022-08-21T16:08:06;41.30;41.40
22680;DHT22;11507;44.858;10.374;2022-08-21T16:10:32;40.80;41.80
22680;DHT22;11507;44.858;10.374;2022-08-21T16:13:02;40.00;41.50
22680;DHT22;11507;44.858;10.374;2022-08-21T16:15:29;39.30;42.50
22680;DHT22;11507;44.858;10.374;2022-08-21T16:17:57;38.50;43.10
22680;DHT22;11507;44.858;10.374;2022-08-21T16:20:28;37.60;44.50
22680;DHT22;11507;44.858;10.374;2022-08-21T16:22:55;36.90;46.30
22680;DHT22;11507;44.858;10.374;2022-08-21T16:25:21;36.30;47.00
22680;DHT22;11507;44.858;10.374;2022-08-21T16:27:54;35.60;49.00
22680;DHT22;11507;44.858;10.374;2022-08-21T16:30:22;35.10;50.40
22680;DHT22;11507;44.858;10.374;2022-08-21T16:32:48;34.90;51.30
22680;DHT22;11507;44.858;10.374;2022-08-21T16:35:16;34.70;48.80
22680;DHT22;11507;44.858;10.374;2022-08-21T16:37:44;34.60;49.90
22680;DHT22;11507;44.858;10.374;2022-08-21T16:40:10;34.40;50.70
22680;DHT22;11507;44.858;10.374;2022-08-21T16:42:38;34.10;51.20
22680;DHT22;11507;44.858;10.374;2022-08-21T16:45:10;33.80;53.30
22680;DHT22;11507;44.858;10.374;2022-08-21T16:47:36;33.60;55.80
22680;DHT22;11507;44.858;10.374;2022-08-21T16:50:03;33.40;56.10